createdAt,value
2023-03-05T00:00:26.148Z,3.10
2023-03-05T00:03:28.697Z,3.35
2023-03-05T00:06:32.476Z,4.73
2023-03-05T00:09:35.903Z,4.65
2023-03-05T00:12:38.971Z,4.72
2023-03-05T00:15:42.937Z,4.47
2023-03-05T00:18:46.479Z,4.93
2023-03-05T00:21:49.050Z,4.40
2023-03-05T00:24:51.911Z,4.22
2023-03-05T00:27:54.365Z,4.53
2023-03-05T00:31:01.458Z,4.37
2023-03-05T00:34:13.295Z,4.77
2023-03-05T00:37:16.982Z,5.32
2023-03-05T00:40:19.863Z,5.40
2023-03-05T00:43:22.541Z,3.63
2023-03-05T00:46:27.461Z,5.33
2023-03-05T00:49:30.319Z,6.35
2023-03-05T00:52:33.346Z,6.43
2023-03-05T00:55:36.303Z,5.75
2023-03-05T00:58:39.658Z,5.83
2023-03-05T01:01:42.265Z,6.30
2023-03-05T01:04:47.266Z,4.78
2023-03-05T01:07:53.953Z,5.00
2023-03-05T01:10:56.731Z,5.70
2023-03-05T01:13:59.174Z,6.23
2023-03-05T01:17:02.005Z,5.20
2023-03-05T01:20:06.044Z,4.18
2023-03-05T01:23:09.185Z,6.05
2023-03-05T01:26:11.630Z,6.20
2023-03-05T01:29:14.095Z,4.78
2023-03-05T01:32:16.639Z,5.88
2023-03-05T01:35:22.440Z,4.07
2023-03-05T01:38:25.813Z,5.70
2023-03-05T01:41:28.420Z,5.95
2023-03-05T01:44:31.956Z,5.30
2023-03-05T01:47:34.357Z,5.82
2023-03-05T01:50:36.905Z,6.20
2023-03-05T01:53:40.801Z,5.55
2023-03-05T01:56:45.968Z,6.00
2023-03-05T01:59:53.607Z,4.53
2023-03-05T02:02:58.547Z,5.73
2023-03-05T02:06:01.023Z,6.57
2023-03-05T02:09:04.366Z,5.28
2023-03-05T02:12:08.771Z,5.20
2023-03-05T02:15:12.841Z,4.68
2023-03-05T02:18:16.686Z,6.00
2023-03-05T02:21:42.663Z,4.55
2023-03-05T02:24:45.259Z,4.10
2023-03-05T02:28:10.383Z,5.78
2023-03-05T02:31:15.852Z,5.40
2023-03-05T02:34:18.396Z,5.87
2023-03-05T02:37:21.121Z,5.85
2023-03-05T02:40:24.463Z,6.88
2023-03-05T02:43:27.107Z,4.45
2023-03-05T02:46:29.912Z,5.10
2023-03-05T02:49:32.448Z,5.20
2023-03-05T02:52:35.669Z,5.10
2023-03-05T02:55:39.939Z,5.78
2023-03-05T02:58:43.059Z,6.25
2023-03-05T03:01:45.857Z,3.93
2023-03-05T03:04:48.370Z,5.82
2023-03-05T03:07:50.965Z,5.88
2023-03-05T03:10:53.596Z,6.40
2023-03-05T03:13:56.053Z,5.27
2023-03-05T03:16:59.493Z,5.97
2023-03-05T03:20:04.044Z,5.13
2023-03-05T03:23:07.447Z,5.53
2023-03-05T03:26:09.931Z,5.43
2023-03-05T03:29:13.577Z,4.03
2023-03-05T03:32:16.183Z,4.23
2023-03-05T03:35:19.126Z,5.55
2023-03-05T03:38:21.553Z,5.68
2023-03-05T03:41:24.538Z,4.30
2023-03-05T03:44:27.195Z,3.77
2023-03-05T03:47:30.818Z,5.85
2023-03-05T03:50:33.343Z,7.68
2023-03-05T03:53:36.013Z,4.72
2023-03-05T03:56:38.644Z,3.67
2023-03-05T03:59:41.497Z,3.83
2023-03-05T04:02:44.400Z,4.82
2023-03-05T04:05:48.348Z,4.38
2023-03-05T04:08:51.043Z,4.40
2023-03-05T04:11:53.586Z,5.27
2023-03-05T04:14:56.111Z,6.53
2023-03-05T04:17:58.741Z,4.93
2023-03-05T04:21:01.282Z,4.70
2023-03-05T04:24:04.184Z,5.35
2023-03-05T04:27:07.039Z,4.47
2023-03-05T04:30:14.821Z,5.13
2023-03-05T04:33:19.197Z,5.38
2023-03-05T04:36:22.122Z,5.13
2023-03-05T04:39:25.326Z,3.47
2023-03-05T04:42:27.882Z,5.33
2023-03-05T04:45:30.530Z,4.93
2023-03-05T04:48:33.083Z,5.00
2023-03-05T04:51:35.651Z,5.53
2023-03-05T04:54:38.939Z,5.25
2023-03-05T04:57:41.516Z,3.73
2023-03-05T05:00:44.088Z,5.32
2023-03-05T05:03:46.625Z,4.72
2023-03-05T05:06:49.220Z,5.40
2023-03-05T05:09:52.177Z,5.25
2023-03-05T05:12:54.725Z,5.23
2023-03-05T05:15:57.954Z,4.95
2023-03-05T05:19:00.505Z,4.97
2023-03-05T05:22:03.451Z,4.60
2023-03-05T05:25:08.030Z,6.47
2023-03-05T05:28:11.618Z,5.73
2023-03-05T05:31:16.517Z,5.60
2023-03-05T05:34:19.002Z,4.65
2023-03-05T05:37:22.096Z,5.80
2023-03-05T05:40:24.525Z,5.30
2023-03-05T05:43:28.448Z,4.73
2023-03-05T05:46:32.061Z,4.05
2023-03-05T05:49:34.583Z,5.25
2023-03-05T05:52:37.401Z,4.70
2023-03-05T05:55:41.223Z,4.63
2023-03-05T05:58:47.201Z,4.27
2023-03-05T06:01:49.868Z,4.85
2023-03-05T06:04:52.485Z,5.30
2023-03-05T06:07:55.025Z,5.20
2023-03-05T06:10:57.575Z,5.83
2023-03-05T06:14:02.601Z,5.43
2023-03-05T06:17:05.196Z,5.60
2023-03-05T06:20:09.262Z,5.30
2023-03-05T06:23:11.784Z,5.10
2023-03-05T06:26:17.501Z,6.40
2023-03-05T06:29:19.984Z,4.37
2023-03-05T06:32:23.123Z,6.72
2023-03-05T06:35:25.586Z,5.15
2023-03-05T06:38:28.109Z,5.35
2023-03-05T06:41:32.837Z,5.57
2023-03-05T06:44:35.317Z,5.87
2023-03-05T06:47:37.887Z,6.13
2023-03-05T06:50:40.398Z,6.05
2023-03-05T06:53:43.681Z,6.20
2023-03-05T06:56:47.165Z,6.30
2023-03-05T06:59:49.891Z,7.10
2023-03-05T07:02:53.876Z,6.50
2023-03-05T07:05:56.502Z,6.53
2023-03-05T07:09:03.597Z,6.15
2023-03-05T07:12:07.664Z,6.83
2023-03-05T07:15:10.729Z,5.10
2023-03-05T07:18:13.233Z,6.72
2023-03-05T07:21:20.967Z,5.07
2023-03-05T07:24:27.414Z,7.00
2023-03-05T07:27:29.976Z,6.97
2023-03-05T07:30:34.220Z,7.10
2023-03-05T07:33:37.316Z,5.82
2023-03-05T07:36:40.597Z,7.50
2023-03-05T07:39:43.375Z,6.18
2023-03-05T07:42:46.876Z,6.03
2023-03-05T07:45:58.716Z,6.23
2023-03-05T07:49:01.478Z,6.95
2023-03-05T07:52:04.175Z,5.60
2023-03-05T07:55:07.056Z,5.90
2023-03-05T07:58:10.506Z,6.10
2023-03-05T08:01:14.446Z,6.73
2023-03-05T08:04:17.148Z,6.88
2023-03-05T08:07:19.750Z,5.85
2023-03-05T08:10:22.470Z,5.63
2023-03-05T08:13:24.916Z,6.67
2023-03-05T08:16:28.044Z,4.73
2023-03-05T08:19:30.757Z,5.68
2023-03-05T08:22:34.861Z,5.85
2023-03-05T08:25:38.447Z,5.65
2023-03-05T08:28:41.029Z,5.47
2023-03-05T08:31:46.495Z,5.70
2023-03-05T08:34:48.928Z,3.53
2023-03-05T08:37:51.816Z,4.75
2023-03-05T08:40:54.342Z,5.18
2023-03-05T08:43:56.963Z,6.20
2023-03-05T08:46:59.443Z,6.60
2023-03-05T08:50:02.101Z,4.85
2023-03-05T08:53:04.756Z,5.40
2023-03-05T08:56:07.984Z,5.50
2023-03-05T08:59:12.658Z,4.63
2023-03-05T09:02:16.344Z,5.70
2023-03-05T09:05:19.530Z,4.60
2023-03-05T09:08:22.163Z,4.97
2023-03-05T09:11:24.739Z,5.25
2023-03-05T09:14:30.316Z,5.50
2023-03-05T09:17:32.798Z,5.10
2023-03-05T09:20:36.203Z,4.38
2023-03-05T09:23:39.335Z,4.55
2023-03-05T09:26:42.400Z,5.25
2023-03-05T09:29:44.914Z,5.67
2023-03-05T09:32:47.521Z,5.77
2023-03-05T09:35:50.250Z,4.85
2023-03-05T09:38:55.290Z,4.75
2023-03-05T09:42:38.953Z,5.60
2023-03-05T09:46:14.991Z,5.67
2023-03-05T09:49:23.252Z,3.70
2023-03-05T09:52:45.520Z,4.88
2023-03-05T09:55:54.010Z,6.13
2023-03-05T09:59:32.085Z,6.68
2023-03-05T10:02:40.131Z,6.83
2023-03-05T10:05:45.628Z,6.70
2023-03-05T10:09:24.840Z,7.75
2023-03-05T10:12:46.128Z,6.47
2023-03-05T10:16:15.748Z,6.85
2023-03-05T10:19:34.878Z,6.83
2023-03-05T10:22:40.377Z,6.57
2023-03-05T10:25:54.725Z,5.25
2023-03-05T10:29:35.538Z,5.60
2023-03-05T10:33:08.742Z,6.00
2023-03-05T10:36:46.157Z,6.80
2023-03-05T10:40:05.727Z,5.73
2023-03-05T10:43:40.707Z,4.75
2023-03-05T10:46:50.046Z,4.45
2023-03-05T10:49:55.330Z,4.65
2023-03-05T10:53:21.203Z,4.50
2023-03-05T10:56:26.519Z,5.10
2023-03-05T10:59:29.695Z,4.68
2023-03-05T11:02:33.813Z,5.30
2023-03-05T11:05:39.300Z,4.68
2023-03-05T11:08:42.510Z,4.07
2023-03-05T11:12:16.200Z,3.67
2023-03-05T11:15:26.937Z,4.20
2023-03-05T11:18:34.810Z,3.45
2023-03-05T11:21:38.029Z,3.83
2023-03-05T11:24:41.842Z,3.37
2023-03-05T11:27:54.573Z,3.33
2023-03-05T11:31:00.679Z,3.55
2023-03-05T11:34:23.774Z,3.47
2023-03-05T11:37:29.486Z,3.92
2023-03-05T11:40:37.427Z,4.63
2023-03-05T11:43:43.097Z,4.80
2023-03-05T11:46:50.468Z,4.85
2023-03-05T11:50:00.730Z,5.47
2023-03-05T11:53:09.583Z,5.25
2023-03-05T11:56:24.398Z,4.83
2023-03-05T11:59:35.358Z,5.40
2023-03-05T12:02:38.593Z,5.47
2023-03-05T12:05:46.964Z,5.22
2023-03-05T12:08:55.187Z,5.22
2023-03-05T12:12:21.624Z,5.10
2023-03-05T12:16:12.497Z,4.83
2023-03-05T12:19:21.246Z,5.57
2023-03-05T12:22:27.108Z,6.93
2023-03-05T12:25:35.345Z,5.80
2023-03-05T12:28:46.209Z,5.20
2023-03-05T12:31:49.217Z,4.97
2023-03-05T12:35:01.635Z,3.67
2023-03-05T12:38:32.733Z,5.57
2023-03-05T12:41:35.764Z,5.10
2023-03-05T12:44:39.865Z,35.63
2023-03-05T12:48:11.945Z,28.10
2023-03-05T12:51:28.075Z,7.22
2023-03-05T12:54:35.833Z,3.88
2023-03-05T12:57:38.781Z,5.05
2023-03-05T13:00:49.548Z,4.30
2023-03-05T13:03:58.471Z,4.43
2023-03-05T13:07:04.580Z,3.40
2023-03-05T13:10:21.399Z,4.00
2023-03-05T13:13:26.756Z,2.40
2023-03-05T13:16:37.877Z,3.80
2023-03-05T13:19:41.925Z,2.37
2023-03-05T13:22:44.904Z,3.42
2023-03-05T13:26:03.893Z,3.15
2023-03-05T13:29:12.423Z,2.78
2023-03-05T13:32:35.428Z,2.43
2023-03-05T13:35:45.571Z,2.00
2023-03-05T13:38:49.072Z,2.85
2023-03-05T13:41:58.135Z,2.53
2023-03-05T13:45:05.763Z,2.97
2023-03-05T13:48:20.167Z,3.63
2023-03-05T13:51:23.649Z,2.73
2023-03-05T13:54:27.839Z,2.80
2023-03-05T13:57:40.097Z,2.10
2023-03-05T14:00:43.637Z,2.13
2023-03-05T14:03:50.355Z,2.00
2023-03-05T14:06:58.668Z,1.87
2023-03-05T14:10:03.215Z,2.58
2023-03-05T14:13:13.733Z,1.85
2023-03-05T14:16:24.441Z,1.90
2023-03-05T14:19:38.942Z,1.93
2023-03-05T14:22:46.250Z,2.87
2023-03-05T14:25:49.193Z,2.20
2023-03-05T14:29:00.360Z,2.42
2023-03-05T14:32:08.836Z,1.73
2023-03-05T14:35:20.326Z,1.57
2023-03-05T14:38:29.056Z,1.70
2023-03-05T14:41:41.981Z,1.60
2023-03-05T14:44:44.725Z,1.27
2023-03-05T14:47:47.854Z,2.25
2023-03-05T14:50:56.646Z,2.00
2023-03-05T14:53:59.901Z,2.60
2023-03-05T14:57:05.332Z,2.67
2023-03-05T15:00:20.420Z,1.45
2023-03-05T15:03:23.727Z,2.22
2023-03-05T15:06:34.340Z,2.00
2023-03-05T15:09:38.045Z,2.73
2023-03-05T15:12:40.880Z,2.45
2023-03-05T15:15:45.541Z,1.15
2023-03-05T15:18:49.232Z,1.58
2023-03-05T15:21:52.264Z,1.63
2023-03-05T15:24:55.057Z,1.70
2023-03-05T15:27:57.628Z,10.18
2023-03-05T15:31:01.217Z,2.42
2023-03-05T15:34:04.683Z,2.33
2023-03-05T15:37:07.668Z,1.73
2023-03-05T15:40:11.190Z,3.40
2023-03-05T15:43:14.130Z,6.20
2023-03-05T15:46:17.066Z,8.70
2023-03-05T15:49:24.441Z,15.85
2023-03-05T15:52:27.314Z,3.00
2023-03-05T15:55:30.270Z,1.90
2023-03-05T15:58:34.045Z,2.13
2023-03-05T16:01:37.712Z,1.77
2023-03-05T16:04:41.617Z,1.63
2023-03-05T16:07:48.716Z,1.67
2023-03-05T16:10:53.385Z,1.90
2023-03-05T16:13:57.003Z,2.33
2023-03-05T16:17:03.320Z,2.38
2023-03-05T16:20:06.748Z,2.40
2023-03-05T16:23:09.583Z,1.80
2023-03-05T16:26:12.352Z,1.93
2023-03-05T16:29:15.151Z,2.55
2023-03-05T16:32:17.988Z,8.05
2023-03-05T16:35:20.874Z,2.60
2023-03-05T16:38:23.645Z,3.07
2023-03-05T16:41:27.211Z,1.70
2023-03-05T16:44:30.084Z,1.77
2023-03-05T16:47:32.995Z,3.70
2023-03-05T16:50:36.123Z,2.08
2023-03-05T16:53:39.855Z,1.93
2023-03-05T16:56:42.654Z,2.63
2023-03-05T16:59:45.614Z,2.00
2023-03-05T17:02:50.003Z,2.13
2023-03-05T17:05:52.873Z,1.88
2023-03-05T17:08:57.681Z,2.00
2023-03-05T17:12:01.168Z,1.80
2023-03-05T17:15:04.575Z,1.70
2023-03-05T17:18:08.070Z,1.33
2023-03-05T17:21:12.040Z,1.95
2023-03-05T17:24:15.194Z,1.87
2023-03-05T17:27:22.741Z,1.20
2023-03-05T17:30:25.541Z,1.92
2023-03-05T17:33:29.100Z,1.35
2023-03-05T17:36:32.269Z,1.65
2023-03-05T17:39:35.167Z,1.57
2023-03-05T17:42:38.692Z,1.70
2023-03-05T17:45:41.765Z,1.30
2023-03-05T17:48:45.094Z,1.50
2023-03-05T17:51:47.979Z,0.98
2023-03-05T17:54:53.128Z,1.80
2023-03-05T17:57:56.780Z,1.70
2023-03-05T18:01:00.434Z,1.65
2023-03-05T18:04:03.447Z,1.58
2023-03-05T18:07:06.184Z,1.60
2023-03-05T18:10:13.180Z,2.10
2023-03-05T18:13:17.518Z,2.03
2023-03-05T18:16:20.428Z,1.40
2023-03-05T18:19:23.061Z,1.90
2023-03-05T18:22:26.880Z,2.00
2023-03-05T18:25:33.243Z,1.93
2023-03-05T18:28:35.999Z,2.00
2023-03-05T18:31:38.837Z,2.05
2023-03-05T18:34:41.453Z,2.45
2023-03-05T18:37:44.201Z,2.50
2023-03-05T18:40:51.218Z,2.60
2023-03-05T18:43:54.697Z,2.67
2023-03-05T18:46:58.071Z,2.72
2023-03-05T18:50:02.668Z,2.20
2023-03-05T18:53:05.453Z,3.70
2023-03-05T18:56:09.470Z,2.30
2023-03-05T18:59:12.373Z,2.70
2023-03-05T19:02:16.707Z,2.22
2023-03-05T19:05:19.855Z,2.88
2023-03-05T19:08:22.756Z,3.10
2023-03-05T19:11:25.709Z,2.63
2023-03-05T19:14:28.470Z,2.20
2023-03-05T19:17:32.009Z,3.13
2023-03-05T19:20:36.096Z,2.92
2023-03-05T19:23:39.267Z,3.33
2023-03-05T19:26:42.719Z,3.70
2023-03-05T19:29:46.472Z,3.50
2023-03-05T19:32:49.797Z,3.75
2023-03-05T19:35:53.262Z,4.10
2023-03-05T19:38:56.249Z,4.15
2023-03-05T19:41:59.225Z,4.33
2023-03-05T19:45:02.929Z,5.53
2023-03-05T19:48:06.388Z,4.55
2023-03-05T19:51:14.722Z,5.22
2023-03-05T19:54:19.399Z,4.97
2023-03-05T19:57:21.950Z,4.70
2023-03-05T20:00:28.576Z,4.50
2023-03-05T20:03:31.432Z,3.90
2023-03-05T20:06:35.005Z,5.28
2023-03-05T20:09:38.358Z,4.97
2023-03-05T20:12:41.144Z,4.70
2023-03-05T20:15:43.697Z,5.15
2023-03-05T20:18:47.839Z,4.35
2023-03-05T20:21:50.687Z,4.50
2023-03-05T20:24:53.475Z,3.57
2023-03-05T20:27:56.587Z,3.20
2023-03-05T20:31:01.327Z,3.35
2023-03-05T20:34:10.092Z,3.85
2023-03-05T20:37:12.835Z,4.17
2023-03-05T20:40:16.905Z,3.80
2023-03-05T20:43:22.123Z,4.00
2023-03-05T20:46:31.307Z,3.50
2023-03-05T20:49:33.961Z,4.40
2023-03-05T20:52:38.382Z,4.20
2023-03-05T20:55:41.910Z,3.60
2023-03-05T20:58:45.105Z,5.78
2023-03-05T21:01:48.147Z,4.88
2023-03-05T21:04:51.016Z,2.97
2023-03-05T21:07:54.032Z,2.93
2023-03-05T21:10:57.357Z,3.53
2023-03-05T21:14:00.146Z,3.00
2023-03-05T21:17:03.992Z,3.10
2023-03-05T21:20:08.029Z,3.28
2023-03-05T21:23:10.725Z,3.20
2023-03-05T21:26:14.101Z,2.57
2023-03-05T21:29:17.436Z,3.03
2023-03-05T21:32:20.357Z,2.97
2023-03-05T21:35:24.603Z,2.90
2023-03-05T21:38:30.640Z,3.10
2023-03-05T21:41:33.499Z,2.67
2023-03-05T21:44:38.964Z,2.75
2023-03-05T21:47:42.349Z,2.58
2023-03-05T21:50:46.342Z,3.10
2023-03-05T21:53:49.630Z,3.00
2023-03-05T21:56:52.952Z,3.73
2023-03-05T21:59:55.436Z,3.25
2023-03-05T22:02:57.975Z,3.00
2023-03-05T22:06:00.460Z,3.25
2023-03-05T22:09:03.722Z,3.17
2023-03-05T22:12:53.500Z,3.60
2023-03-05T22:16:05.765Z,3.55
2023-03-05T22:19:10.153Z,3.42
2023-03-05T22:22:12.807Z,2.65
2023-03-05T22:25:16.116Z,2.33
2023-03-05T22:28:18.623Z,3.83
2023-03-05T22:31:26.044Z,3.03
2023-03-05T22:34:29.190Z,2.95
2023-03-05T22:37:32.708Z,3.30
2023-03-05T22:40:37.646Z,3.27
2023-03-05T22:43:40.600Z,5.07
2023-03-05T22:46:44.395Z,3.67
2023-03-05T22:49:47.022Z,3.83
2023-03-05T22:52:49.960Z,3.22
2023-03-05T22:55:52.577Z,2.60
2023-03-05T22:58:55.237Z,3.10
2023-03-05T23:01:58.261Z,3.90
2023-03-05T23:05:01.607Z,4.10
2023-03-05T23:08:04.377Z,4.40
2023-03-05T23:11:09.861Z,3.87
2023-03-05T23:14:12.733Z,3.70
2023-03-05T23:17:15.411Z,4.25
2023-03-05T23:20:20.936Z,5.00
2023-03-05T23:23:23.537Z,5.70
2023-03-05T23:26:25.942Z,5.23
2023-03-05T23:30:09.342Z,6.27
2023-03-05T23:33:19.695Z,6.60
2023-03-05T23:36:25.915Z,6.22
2023-03-05T23:39:28.844Z,5.72
2023-03-05T23:42:32.946Z,5.57
2023-03-05T23:45:35.444Z,4.50
2023-03-05T23:48:38.028Z,4.70
2023-03-05T23:51:40.853Z,5.10
2023-03-05T23:54:43.569Z,4.45
2023-03-05T23:57:47.134Z,4.40
